Time;durP1;ratioP1;P1;durP2;ratioP2;P2;SDS_P1;SDS_P2;PMS_P1;PMS_P2;Temp;Humidity;BMP_temperature;BMP_pressure;BME280_temperature;BME280_humidity;BME280_pressure;Samples;Min_cycle;Max_cycle;Signal;HPM_P1;HPM_P2
2021/09/26 00:02:19;;;;;;;10.57;9.10;;;17.70;99.90;;;;;;5013094;28;20445;-59
2021/09/26 00:04:46;;;;;;;13.03;10.20;;;17.60;99.90;;;;;;4995604;28;20490;-59
2021/09/26 00:07:13;;;;;;;12.37;10.10;;;17.50;99.90;;;;;;4998378;28;21056;-58
2021/09/26 00:09:40;;;;;;;12.53;10.13;;;17.40;99.90;;;;;;5014847;28;20454;-59
2021/09/26 00:12:07;;;;;;;15.97;10.07;;;17.40;99.90;;;;;;5015091;28;20449;-58
2021/09/26 00:14:36;;;;;;;11.10;9.13;;;17.40;99.90;;;;;;5014842;28;20442;-60
2021/09/26 00:17:04;;;;;;;16.33;10.90;;;17.40;99.90;;;;;;5013944;28;20465;-58
2021/09/26 00:19:32;;;;;;;13.93;10.80;;;17.40;99.90;;;;;;5015198;28;20457;-59
2021/09/26 00:21:59;;;;;;;14.87;11.20;;;17.40;99.90;;;;;;5004675;28;20508;-59
2021/09/26 00:24:26;;;;;;;13.47;10.07;;;17.30;99.90;;;;;;4995336;28;20482;-59
2021/09/26 00:26:53;;;;;;;15.00;11.00;;;17.20;99.90;;;;;;4995166;28;20827;-59
2021/09/26 00:29:20;;;;;;;13.80;9.70;;;17.20;99.90;;;;;;4995197;28;20517;-59
2021/09/26 00:31:48;;;;;;;13.50;9.70;;;17.30;99.90;;;;;;4995102;28;20454;-59
2021/09/26 00:34:15;;;;;;;11.13;8.93;;;17.40;99.90;;;;;;4995229;28;20473;-59
2021/09/26 00:36:42;;;;;;;13.50;10.20;;;17.40;99.90;;;;;;4995108;28;20470;-60
2021/09/26 00:39:09;;;;;;;16.30;9.90;;;17.40;99.90;;;;;;4996169;28;20450;-59
2021/09/26 00:41:37;;;;;;;10.87;9.10;;;17.30;99.90;;;;;;4994782;28;20454;-59
2021/09/26 00:44:04;;;;;;;10.83;9.20;;;17.30;99.90;;;;;;4995320;28;20482;-59
2021/09/26 00:46:31;;;;;;;15.23;8.57;;;17.40;99.90;;;;;;4994845;28;20984;-59
2021/09/26 00:48:59;;;;;;;10.53;9.10;;;17.40;99.90;;;;;;4994959;28;20497;-59
2021/09/26 00:51:26;;;;;;;11.97;9.20;;;17.40;99.90;;;;;;4994626;28;20458;-59
2021/09/26 00:53:53;;;;;;;11.23;8.60;;;17.40;99.90;;;;;;4998478;28;20449;-59
2021/09/26 00:56:21;;;;;;;11.77;8.53;;;17.40;99.90;;;;;;5005847;28;20839;-59
2021/09/26 00:58:49;;;;;;;10.50;8.50;;;17.40;99.90;;;;;;4995044;28;20501;-59
2021/09/26 01:01:16;;;;;;;13.80;7.80;;;17.50;99.90;;;;;;4994672;28;20458;-59
2021/09/26 01:03:43;;;;;;;11.03;8.50;;;17.70;99.90;;;;;;4994665;28;20485;-59
2021/09/26 01:06:26;;;;;;;10.97;8.27;;;17.60;99.90;;;;;;4993539;28;20470;-59
2021/09/26 01:09:04;;;;;;;10.17;8.50;;;17.50;99.90;;;;;;4994830;28;20434;-59
2021/09/26 01:11:40;;;;;;;9.77;7.90;;;17.40;99.90;;;;;;5006774;28;20873;-60
2021/09/26 01:14:15;;;;;;;10.73;8.20;;;17.30;99.90;;;;;;5013884;28;20507;-59
2021/09/26 01:16:57;;;;;;;11.30;8.23;;;17.20;99.90;;;;;;5013914;28;20476;-59
2021/09/26 01:19:41;;;;;;;10.93;8.17;;;17.20;99.90;;;;;;5014101;28;20460;-59
2021/09/26 01:22:13;;;;;;;9.50;8.17;;;17.10;99.90;;;;;;5010541;28;20450;-59
2021/09/26 01:25:13;;;;;;;9.77;7.90;;;17.10;99.90;;;;;;4999109;28;20539;-60
2021/09/26 01:28:17;;;;;;;11.20;8.60;;;17.10;99.90;;;;;;5012239;28;20453;-59
2021/09/26 01:30:50;;;;;;;12.23;7.90;;;17.10;99.90;;;;;;5011895;28;20449;-59
2021/09/26 01:33:22;;;;;;;12.93;9.07;;;16.90;99.90;;;;;;5013599;28;20495;-59
2021/09/26 01:35:56;;;;;;;10.37;8.37;;;17.00;99.90;;;;;;5002735;28;20462;-59
2021/09/26 01:38:33;;;;;;;12.63;8.30;;;17.00;99.90;;;;;;4994162;28;20454;-59
2021/09/26 01:41:03;;;;;;;9.57;8.10;;;17.10;99.90;;;;;;4993880;28;20454;-59
2021/09/26 01:43:36;;;;;;;10.57;8.93;;;17.10;99.90;;;;;;5003294;28;20441;-59
2021/09/26 01:46:09;;;;;;;9.17;7.60;;;17.20;99.90;;;;;;5013551;28;20994;-59
2021/09/26 01:48:41;;;;;;;8.93;7.63;;;17.10;99.90;;;;;;5012788;28;20499;-59
2021/09/26 01:51:10;;;;;;;9.67;7.93;;;17.20;99.90;;;;;;5013218;28;20495;-59
2021/09/26 01:53:42;;;;;;;8.33;6.87;;;17.20;99.90;;;;;;5012342;28;20802;-59
2021/09/26 01:56:11;;;;;;;9.80;6.80;;;17.20;99.90;;;;;;5012618;28;20987;-59
2021/09/26 01:58:39;;;;;;;10.23;6.90;;;17.20;99.90;;;;;;5011858;28;20445;-59
2021/09/26 02:01:08;;;;;;;11.20;6.43;;;17.20;99.90;;;;;;4993559;28;20454;-59
2021/09/26 02:03:35;;;;;;;7.20;6.00;;;17.20;99.90;;;;;;4993426;28;20542;-59
2021/09/26 02:06:03;;;;;;;12.93;6.60;;;17.10;99.90;;;;;;4993423;28;20466;-59
2021/09/26 02:08:31;;;;;;;9.30;6.50;;;17.10;99.90;;;;;;4993392;28;20446;-59
2021/09/26 02:10:58;;;;;;;9.47;6.80;;;17.20;99.90;;;;;;5007197;28;20445;-59
2021/09/26 02:13:26;;;;;;;7.00;6.27;;;17.10;99.90;;;;;;5013002;28;20503;-59
2021/09/26 02:15:55;;;;;;;9.90;6.90;;;17.10;99.90;;;;;;5010312;28;21049;-59
2021/09/26 02:18:24;;;;;;;8.93;5.80;;;17.10;99.90;;;;;;5012164;28;20512;-59
2021/09/26 02:20:52;;;;;;;6.70;6.00;;;17.10;99.90;;;;;;5012636;28;20528;-59
2021/09/26 02:23:20;;;;;;;7.23;6.37;;;17.00;99.90;;;;;;5012735;28;20449;-59
2021/09/26 02:25:47;;;;;;;12.53;7.00;;;17.00;99.90;;;;;;5012836;28;20539;-59
2021/09/26 02:28:15;;;;;;;10.17;6.63;;;16.90;99.90;;;;;;5005166;28;20801;-59
2021/09/26 02:30:42;;;;;;;9.13;6.20;;;16.80;99.90;;;;;;4992906;28;20450;-58
2021/09/26 02:33:09;;;;;;;16.77;7.67;;;16.70;99.90;;;;;;4993967;28;20458;-59
2021/09/26 02:35:37;;;;;;;6.63;5.80;;;16.70;99.90;;;;;;4993051;28;20470;-59
2021/09/26 02:38:04;;;;;;;8.67;6.90;;;16.70;99.90;;;;;;4993161;28;20458;-59
2021/09/26 02:40:32;;;;;;;10.63;6.63;;;16.70;99.90;;;;;;4992603;28;21014;-59
2021/09/26 02:43:09;;;;;;;9.03;7.20;;;16.60;99.90;;;;;;5007143;28;20449;-59
2021/09/26 02:45:42;;;;;;;9.73;6.80;;;16.50;99.90;;;;;;5004463;28;20555;-59
2021/09/26 02:48:12;;;;;;;8.07;6.50;;;16.40;99.90;;;;;;4992666;28;20450;-59
2021/09/26 02:50:43;;;;;;;8.03;6.90;;;16.30;99.90;;;;;;5009543;28;20457;-59
2021/09/26 02:53:12;;;;;;;11.43;7.00;;;16.20;99.90;;;;;;5001379;28;20500;-59
2021/09/26 02:55:40;;;;;;;10.97;6.77;;;16.20;99.90;;;;;;5012075;28;20473;-59
2021/09/26 02:58:08;;;;;;;8.47;6.77;;;16.40;99.90;;;;;;4999293;28;20450;-59
2021/09/26 03:00:37;;;;;;;10.60;7.53;;;16.40;99.90;;;;;;4992259;28;20504;-59
2021/09/26 03:03:06;;;;;;;11.37;7.43;;;16.40;99.90;;;;;;4998023;28;20951;-59
2021/09/26 03:05:33;;;;;;;10.20;7.13;;;16.20;99.90;;;;;;5011297;28;20485;-59
2021/09/26 03:08:01;;;;;;;9.83;7.80;;;16.10;99.90;;;;;;5014838;28;20491;-58
2021/09/26 03:10:28;;;;;;;11.27;8.10;;;15.90;99.90;;;;;;5008597;28;20446;-59
2021/09/26 03:12:55;;;;;;;11.63;7.80;;;15.80;99.90;;;;;;5002217;28;20558;-59
2021/09/26 03:15:23;;;;;;;9.20;7.40;;;15.80;99.90;;;;;;5001490;28;20470;-59
2021/09/26 03:17:50;;;;;;;12.50;8.60;;;15.90;99.90;;;;;;4996282;28;20948;-60
2021/09/26 03:20:17;;;;;;;10.53;8.30;;;16.00;99.90;;;;;;5015631;28;20454;-59
2021/09/26 03:22:44;;;;;;;12.03;9.07;;;16.00;99.90;;;;;;5020882;28;20445;-59
2021/09/26 03:25:13;;;;;;;16.97;8.77;;;15.90;99.90;;;;;;5020915;28;20485;-59
2021/09/26 03:27:41;;;;;;;11.70;8.13;;;15.90;99.90;;;;;;5017744;28;20499;-58
2021/09/26 03:30:08;;;;;;;11.40;8.60;;;15.80;99.90;;;;;;5013582;28;20982;-59
2021/09/26 03:32:36;;;;;;;11.53;7.43;;;15.80;99.90;;;;;;5015991;28;20488;-59
2021/09/26 03:35:04;;;;;;;9.20;7.33;;;15.80;99.90;;;;;;5013176;28;20511;-59
2021/09/26 03:37:31;;;;;;;9.03;6.20;;;16.00;99.90;;;;;;5002633;28;20453;-59
2021/09/26 03:39:58;;;;;;;12.40;6.10;;;15.90;99.90;;;;;;5015755;28;21002;-59
2021/09/26 03:42:27;;;;;;;10.40;6.47;;;15.90;99.90;;;;;;5015455;28;20452;-59
2021/09/26 03:44:54;;;;;;;7.73;6.07;;;15.90;99.90;;;;;;5004990;28;20485;-59
2021/09/26 03:47:21;;;;;;;8.53;5.80;;;15.80;99.90;;;;;;5013230;28;20830;-58
2021/09/26 03:49:48;;;;;;;10.00;6.20;;;15.80;99.90;;;;;;5015737;28;20903;-59
2021/09/26 03:52:16;;;;;;;9.33;7.10;;;15.70;99.90;;;;;;5015407;28;20457;-59
2021/09/26 03:54:43;;;;;;;6.73;5.70;;;15.70;99.90;;;;;;5015347;28;20449;-59
2021/09/26 03:57:10;;;;;;;6.87;5.80;;;15.80;99.90;;;;;;5014527;28;21053;-59
2021/09/26 03:59:38;;;;;;;7.37;6.57;;;15.80;99.90;;;;;;5019179;28;20452;-59
2021/09/26 04:02:06;;;;;;;7.37;6.07;;;15.70;99.90;;;;;;5017485;28;20887;-59
2021/09/26 04:04:33;;;;;;;11.00;7.13;;;15.70;99.90;;;;;;5015333;28;20464;-59
2021/09/26 04:07:00;;;;;;;11.40;7.90;;;15.80;99.90;;;;;;5015212;28;20469;-59
2021/09/26 04:09:27;;;;;;;10.10;7.80;;;15.80;99.90;;;;;;5015216;28;20500;-59
2021/09/26 04:11:54;;;;;;;10.70;7.43;;;15.70;99.90;;;;;;5015217;28;20457;-59
2021/09/26 04:14:21;;;;;;;10.30;7.10;;;15.70;99.90;;;;;;5005709;28;20504;-58
2021/09/26 04:16:52;;;;;;;8.90;6.80;;;15.60;99.90;;;;;;4995482;28;20477;-59
2021/09/26 04:19:19;;;;;;;7.47;6.50;;;15.60;99.90;;;;;;4995550;28;20450;-59
2021/09/26 04:21:49;;;;;;;11.47;7.37;;;15.60;99.90;;;;;;4995158;28;20450;-59
2021/09/26 04:24:16;;;;;;;8.90;6.83;;;15.70;99.90;;;;;;4995580;28;20508;-59
2021/09/26 04:26:43;;;;;;;11.47;7.43;;;15.80;99.90;;;;;;4995381;28;20494;-59
2021/09/26 04:29:10;;;;;;;12.90;7.63;;;15.70;99.90;;;;;;5010368;28;20453;-58
2021/09/26 04:31:37;;;;;;;11.70;7.80;;;15.60;99.90;;;;;;5005363;28;20453;-59
2021/09/26 04:34:05;;;;;;;10.23;7.10;;;15.60;99.90;;;;;;5014901;28;20450;-59
2021/09/26 04:36:32;;;;;;;10.93;6.87;;;15.60;99.90;;;;;;5014563;28;20465;-59
2021/09/26 04:38:59;;;;;;;13.87;7.93;;;15.60;99.90;;;;;;5014932;28;20461;-59
2021/09/26 04:41:26;;;;;;;9.40;7.20;;;15.60;99.90;;;;;;5014436;28;20453;-58
2021/09/26 04:43:53;;;;;;;10.43;7.60;;;15.50;99.90;;;;;;5012429;28;20453;-59
2021/09/26 04:46:20;;;;;;;7.37;6.50;;;15.50;99.90;;;;;;5003695;28;20485;-59
2021/09/26 04:48:47;;;;;;;8.93;6.43;;;15.50;99.90;;;;;;5014504;28;20449;-59
2021/09/26 04:51:16;;;;;;;10.90;6.57;;;15.50;99.90;;;;;;5014176;28;20454;-59
2021/09/26 04:53:43;;;;;;;11.37;5.90;;;15.50;99.90;;;;;;5014628;28;20882;-58
2021/09/26 04:56:10;;;;;;;8.07;6.20;;;15.60;99.90;;;;;;5014284;28;20477;-59
2021/09/26 04:58:37;;;;;;;10.50;6.37;;;15.60;99.90;;;;;;5014419;28;20524;-59
2021/09/26 05:01:04;;;;;;;6.40;5.77;;;15.60;99.90;;;;;;5012407;28;20882;-58
2021/09/26 05:03:31;;;;;;;10.40;6.93;;;15.50;99.90;;;;;;5014139;28;20450;-59
2021/09/26 05:05:58;;;;;;;11.80;6.47;;;15.60;99.90;;;;;;5013932;28;20925;-59
2021/09/26 05:08:27;;;;;;;8.37;6.70;;;15.50;99.90;;;;;;5013948;28;20457;-59
2021/09/26 05:10:53;;;;;;;11.17;7.40;;;15.50;99.90;;;;;;5013044;28;20507;-59
2021/09/26 05:13:20;;;;;;;11.60;7.77;;;15.50;99.90;;;;;;5014141;28;20469;-59
2021/09/26 05:15:47;;;;;;;11.80;7.07;;;15.40;99.90;;;;;;5014003;28;20512;-58
2021/09/26 05:18:14;;;;;;;10.03;6.30;;;15.40;99.90;;;;;;4999355;28;21020;-58
2021/09/26 05:20:41;;;;;;;11.60;6.80;;;15.40;99.90;;;;;;4994153;28;21187;-59
2021/09/26 05:23:08;;;;;;;7.00;5.90;;;15.40;99.90;;;;;;4994137;28;20451;-58
2021/09/26 05:25:37;;;;;;;14.67;6.33;;;15.50;99.90;;;;;;5007578;28;20490;-59
2021/09/26 05:28:04;;;;;;;11.80;6.47;;;15.50;99.90;;;;;;5032120;28;20982;-59
2021/09/26 05:30:33;;;;;;;8.30;6.67;;;15.60;99.90;;;;;;5013437;28;20533;-59
2021/09/26 05:33:01;;;;;;;9.63;6.50;;;15.60;99.90;;;;;;5002809;28;20511;-58
2021/09/26 05:35:28;;;;;;;9.30;7.20;;;15.60;99.90;;;;;;5011467;28;20470;-59
2021/09/26 05:37:55;;;;;;;12.43;7.53;;;15.70;99.90;;;;;;4998435;28;20486;-59
2021/09/26 05:40:22;;;;;;;13.00;7.10;;;15.60;99.90;;;;;;4995274;28;20450;-58
2021/09/26 05:42:51;;;;;;;8.77;6.33;;;15.50;99.90;;;;;;4994424;28;21003;-59
2021/09/26 05:45:19;;;;;;;9.50;6.50;;;15.50;99.90;;;;;;5012711;28;20352;-59
2021/09/26 05:47:46;;;;;;;9.10;6.40;;;15.50;99.90;;;;;;5010677;28;20465;-58
2021/09/26 05:50:13;;;;;;;16.87;6.30;;;15.50;99.90;;;;;;5013140;28;20441;-59
2021/09/26 05:52:40;;;;;;;9.47;5.77;;;15.60;99.90;;;;;;5003153;28;20504;-58
2021/09/26 05:55:08;;;;;;;11.23;7.43;;;15.60;99.90;;;;;;5012390;28;20951;-58
2021/09/26 05:57:35;;;;;;;14.97;7.10;;;15.60;99.90;;;;;;5002505;28;20450;-59
2021/09/26 06:00:04;;;;;;;8.60;5.83;;;15.60;99.90;;;;;;4997578;28;20457;-58
2021/09/26 06:02:33;;;;;;;7.50;6.13;;;15.70;99.90;;;;;;5005030;28;20992;-58
2021/09/26 06:05:00;;;;;;;8.00;6.47;;;15.90;99.90;;;;;;5012834;28;20453;-59
2021/09/26 06:07:27;;;;;;;9.33;6.33;;;16.00;99.90;;;;;;5004126;28;20458;-59
2021/09/26 06:09:54;;;;;;;7.53;6.50;;;16.10;99.90;;;;;;5003950;28;20940;-59
2021/09/26 06:12:21;;;;;;;9.03;6.00;;;16.40;99.90;;;;;;5007449;28;20458;-58
2021/09/26 06:14:48;;;;;;;8.47;5.67;;;16.90;99.90;;;;;;4999085;28;20508;-59
2021/09/26 06:17:17;;;;;;;6.43;4.97;;;17.20;99.90;;;;;;5002520;28;20536;-58
2021/09/26 06:19:44;;;;;;;6.63;5.23;;;17.40;99.90;;;;;;5014115;28;20466;-59
2021/09/26 06:22:11;;;;;;;6.37;4.33;;;17.60;99.90;;;;;;5011358;28;20510;-59
2021/09/26 06:24:38;;;;;;;5.57;5.00;;;17.80;99.90;;;;;;5016299;28;20456;-59
2021/09/26 06:27:05;;;;;;;9.07;5.53;;;17.90;99.90;;;;;;5031324;28;21060;-58
2021/09/26 06:29:32;;;;;;;10.60;7.40;;;18.00;99.90;;;;;;5023693;28;20453;-59
2021/09/26 06:32:00;;;;;;;7.40;5.00;;;18.10;99.90;;;;;;5010689;28;20516;-58
2021/09/26 06:34:28;;;;;;;9.40;5.37;;;18.10;99.90;;;;;;5016238;28;20477;-58
2021/09/26 06:36:55;;;;;;;7.13;5.20;;;18.10;99.90;;;;;;5028173;28;20530;-59
2021/09/26 06:39:22;;;;;;;9.10;5.97;;;18.10;99.90;;;;;;5006434;28;20454;-59
2021/09/26 06:41:49;;;;;;;8.20;4.93;;;18.00;99.90;;;;;;5013704;28;21229;-59
2021/09/26 06:44:16;;;;;;;9.37;5.70;;;17.80;99.90;;;;;;5007927;28;20960;-60
2021/09/26 06:46:43;;;;;;;6.30;5.03;;;17.90;99.90;;;;;;4995984;28;20481;-60
2021/09/26 06:49:11;;;;;;;7.63;5.00;;;18.10;99.90;;;;;;5008412;28;20983;-57
2021/09/26 06:51:39;;;;;;;9.00;5.10;;;18.20;99.90;;;;;;4993877;28;20454;-58
2021/09/26 06:54:08;;;;;;;6.00;4.40;;;18.20;99.90;;;;;;5008293;28;20457;-58
2021/09/26 06:56:35;;;;;;;8.90;4.70;;;18.30;99.90;;;;;;5006165;28;21000;-61
2021/09/26 06:59:02;;;;;;;7.23;4.47;;;18.30;99.90;;;;;;5024871;28;20503;-60
2021/09/26 07:01:32;;;;;;;5.67;5.07;;;18.40;99.90;;;;;;4994078;28;20446;-59
2021/09/26 07:03:59;;;;;;;11.77;4.93;;;18.60;99.90;;;;;;5017570;28;20503;-59
2021/09/26 07:06:26;;;;;;;8.57;5.70;;;18.50;99.90;;;;;;5022732;28;20485;-58
2021/09/26 07:08:54;;;;;;;10.10;4.97;;;18.70;99.90;;;;;;5007957;28;20469;-58
2021/09/26 07:11:21;;;;;;;11.73;5.40;;;18.90;99.90;;;;;;5004584;28;20868;-60
2021/09/26 07:13:48;;;;;;;5.13;4.50;;;19.00;99.90;;;;;;4999949;28;20446;-59
2021/09/26 07:16:16;;;;;;;8.07;4.40;;;19.20;99.90;;;;;;5009842;28;20460;-60
2021/09/26 07:18:44;;;;;;;6.93;5.20;;;19.30;99.90;;;;;;5008852;28;20945;-59
2021/09/26 07:21:13;;;;;;;6.23;4.70;;;19.50;99.90;;;;;;5002602;28;20446;-60
2021/09/26 07:23:40;;;;;;;10.40;5.40;;;19.50;99.90;;;;;;4997731;28;20513;-60
2021/09/26 07:26:08;;;;;;;7.10;4.70;;;19.60;99.90;;;;;;4991855;28;20564;-60
2021/09/26 07:28:35;;;;;;;5.47;4.80;;;19.70;99.90;;;;;;4999757;28;20450;-60
2021/09/26 07:31:03;;;;;;;6.77;4.17;;;19.70;99.90;;;;;;4991621;28;20455;-60
2021/09/26 07:33:30;;;;;;;5.70;5.07;;;19.80;99.90;;;;;;4995399;28;22057;-60
2021/09/26 07:35:57;;;;;;;6.63;4.50;;;19.90;99.90;;;;;;4993535;28;20508;-60
2021/09/26 07:38:24;;;;;;;10.03;5.10;;;20.10;99.90;;;;;;4993395;28;20458;-60
2021/09/26 07:40:51;;;;;;;9.63;4.67;;;20.10;99.90;;;;;;5004573;28;20964;-60
2021/09/26 07:43:19;;;;;;;6.17;4.77;;;20.30;99.90;;;;;;4999102;28;20476;-60
2021/09/26 07:45:46;;;;;;;9.63;4.73;;;20.30;99.90;;;;;;5003816;28;20485;-60
2021/09/26 07:48:13;;;;;;;7.67;5.07;;;20.40;99.90;;;;;;5009997;28;20517;-60
2021/09/26 07:50:40;;;;;;;7.93;4.60;;;20.50;99.90;;;;;;5010217;28;20483;-60
2021/09/26 07:53:07;;;;;;;7.97;5.40;;;20.90;99.90;;;;;;5010858;28;20456;-60
2021/09/26 07:55:35;;;;;;;14.30;4.60;;;21.10;99.90;;;;;;5003871;28;20564;-61
2021/09/26 07:58:02;;;;;;;6.63;5.00;;;21.30;99.90;;;;;;5010339;28;20457;-60
2021/09/26 08:00:31;;;;;;;10.87;6.93;;;21.50;99.90;;;;;;4993602;28;20990;-60
2021/09/26 08:02:58;;;;;;;9.27;6.50;;;21.00;99.90;;;;;;5010879;28;20893;-59
2021/09/26 08:05:29;;;;;;;13.00;6.23;;;20.40;99.90;;;;;;5005121;28;20909;-60
2021/09/26 08:07:56;;;;;;;9.57;5.97;;;20.60;99.90;;;;;;4991173;28;20565;-60
2021/09/26 08:10:26;;;;;;;8.87;6.37;;;20.90;99.90;;;;;;5001968;28;20466;-60
2021/09/26 08:12:53;;;;;;;10.10;6.40;;;21.30;99.90;;;;;;4991537;28;20505;-60
2021/09/26 08:15:21;;;;;;;8.30;6.00;;;21.30;99.90;;;;;;4993156;28;20536;-60
2021/09/26 08:17:50;;;;;;;10.50;6.07;;;21.70;99.90;;;;;;4995168;28;20928;-60
2021/09/26 08:20:18;;;;;;;11.10;6.63;;;21.90;99.90;;;;;;4996051;28;20462;-61
2021/09/26 08:22:46;;;;;;;8.23;5.10;;;22.30;99.90;;;;;;5006230;28;20449;-61
2021/09/26 08:25:13;;;;;;;8.50;5.70;;;22.50;99.90;;;;;;5004893;28;20469;-60
2021/09/26 08:27:41;;;;;;;7.47;5.40;;;21.90;99.90;;;;;;5002654;28;20484;-61
2021/09/26 08:30:10;;;;;;;8.07;5.60;;;21.70;99.90;;;;;;5004130;28;20967;-61
2021/09/26 08:32:37;;;;;;;8.67;5.10;;;21.90;99.90;;;;;;5012456;28;20449;-62
2021/09/26 08:35:07;;;;;;;7.60;4.90;;;21.80;99.90;;;;;;5007119;28;20474;-61
2021/09/26 08:37:34;;;;;;;7.97;5.33;;;21.80;99.90;;;;;;5008775;28;20457;-61
2021/09/26 08:40:02;;;;;;;10.97;5.83;;;21.60;99.90;;;;;;4995257;28;20873;-61
2021/09/26 08:42:29;;;;;;;7.90;5.43;;;21.90;99.90;;;;;;4994601;28;20516;-61
2021/09/26 08:44:57;;;;;;;6.73;5.70;;;21.90;99.90;;;;;;5005128;28;21022;-61
2021/09/26 08:47:24;;;;;;;8.77;5.57;;;22.10;99.90;;;;;;5014491;28;20485;-61
2021/09/26 08:49:51;;;;;;;9.00;5.80;;;22.40;99.90;;;;;;5014214;28;20461;-61
2021/09/26 08:52:20;;;;;;;9.27;6.37;;;22.40;99.90;;;;;;5006827;28;20454;-61
2021/09/26 08:54:47;;;;;;;14.00;6.73;;;22.40;99.90;;;;;;5004019;28;20454;-61
2021/09/26 08:57:14;;;;;;;8.90;7.60;;;22.60;99.90;;;;;;5007075;28;20528;-61
2021/09/26 08:59:41;;;;;;;6.67;5.83;;;23.10;99.90;;;;;;5003158;28;20517;-61
2021/09/26 09:02:08;;;;;;;9.47;7.43;;;23.00;99.90;;;;;;5012445;28;20460;-60
2021/09/26 09:04:37;;;;;;;10.60;7.23;;;22.50;99.90;;;;;;5013196;28;20465;-60
2021/09/26 09:07:06;;;;;;;10.50;8.10;;;22.60;99.90;;;;;;5018845;28;20495;-60
2021/09/26 09:09:48;;;;;;;11.30;8.03;;;22.60;99.90;;;;;;5028424;28;20448;-60
2021/09/26 09:12:15;;;;;;;13.83;7.90;;;22.50;99.90;;;;;;5023818;28;20503;-60
2021/09/26 09:14:51;;;;;;;13.40;8.37;;;22.50;99.90;;;;;;5022340;28;20468;-60
2021/09/26 09:17:32;;;;;;;9.83;7.90;;;22.90;99.90;;;;;;4998669;28;20445;-60
2021/09/26 09:20:30;;;;;;;9.60;8.00;;;23.20;99.90;;;;;;5013522;28;20878;-59
2021/09/26 09:22:59;;;;;;;13.10;8.77;;;23.50;99.90;;;;;;5003033;28;20460;-60
2021/09/26 09:25:36;;;;;;;9.03;8.00;;;23.30;99.90;;;;;;5003420;28;20539;-60
2021/09/26 09:28:06;;;;;;;10.77;7.73;;;23.00;99.90;;;;;;5021837;23;20515;-53
2021/09/26 09:30:35;;;;;;;15.03;8.10;;;23.00;99.90;;;;;;4991318;28;20854;-53
2021/09/26 09:33:03;;;;;;;9.83;8.13;;;23.30;99.90;;;;;;4985548;28;20452;-53
2021/09/26 09:35:36;;;;;;;8.90;7.97;;;23.00;99.90;;;;;;4974380;28;20466;-53
2021/09/26 09:38:04;;;;;;;8.77;7.80;;;23.00;99.90;;;;;;4988854;28;20916;-52
2021/09/26 09:40:35;;;;;;;11.97;8.60;;;23.00;99.90;;;;;;4978692;28;20459;-53
2021/09/26 09:43:02;;;;;;;8.23;7.43;;;22.60;99.90;;;;;;4976142;28;20962;-52
2021/09/26 09:45:30;;;;;;;11.70;7.90;;;22.90;99.90;;;;;;4956513;28;21017;-52
2021/09/26 09:48:00;;;;;;;10.53;7.70;;;22.80;99.90;;;;;;4973494;28;20487;-52
2021/09/26 09:50:32;;;;;;;9.67;7.43;;;23.10;99.90;;;;;;4966279;28;20514;-52
2021/09/26 09:52:59;;;;;;;9.13;7.40;;;23.00;99.90;;;;;;4974358;28;20459;-53
2021/09/26 09:55:27;;;;;;;10.90;8.00;;;23.00;99.90;;;;;;4974472;28;20889;-52
2021/09/26 09:58:12;;;;;;;9.50;8.50;;;23.10;99.90;;;;;;4973711;28;20558;-53
2021/09/26 10:00:48;;;;;;;9.17;7.60;;;23.40;99.90;;;;;;4973752;28;20482;-53
2021/09/26 10:03:34;;;;;;;11.53;8.27;;;23.80;99.90;;;;;;4973280;28;20507;-52
2021/09/26 10:06:02;;;;;;;10.63;7.50;;;24.40;99.90;;;;;;4973642;28;20530;-53
2021/09/26 10:08:33;;;;;;;9.00;7.13;;;24.90;99.90;;;;;;4973888;28;20566;-53
2021/09/26 10:11:06;;;;;;;8.63;7.63;;;25.10;99.90;;;;;;4973207;28;20531;-53
2021/09/26 10:13:36;;;;;;;8.70;7.13;;;25.30;99.90;;;;;;4978213;28;20458;-54
2021/09/26 10:16:05;;;;;;;9.83;7.80;;;25.30;99.90;;;;;;4977282;28;21044;-54
2021/09/26 10:18:32;;;;;;;8.40;7.50;;;25.30;99.90;;;;;;4972907;28;20546;-54
2021/09/26 10:21:00;;;;;;;8.60;7.00;;;24.90;99.90;;;;;;4973499;28;20451;-54
2021/09/26 10:23:27;;;;;;;8.10;6.73;;;24.80;99.90;;;;;;4972940;28;20509;-53
2021/09/26 10:25:56;;;;;;;7.00;6.40;;;24.50;99.90;;;;;;4973394;28;20455;-53
2021/09/26 10:28:26;;;;;;;10.63;7.17;;;24.20;99.90;;;;;;4968060;28;20850;-54
2021/09/26 10:30:56;;;;;;;7.17;6.47;;;24.00;99.90;;;;;;4972862;28;20447;-53
2021/09/26 10:33:24;;;;;;;8.33;7.33;;;24.00;99.90;;;;;;4973135;28;20533;-53
2021/09/26 10:35:52;;;;;;;8.60;6.47;;;24.20;99.90;;;;;;4972973;28;20456;-54
2021/09/26 10:38:21;;;;;;;8.17;7.37;;;24.20;99.90;;;;;;4972777;28;20471;-53
2021/09/26 10:40:48;;;;;;;10.10;7.50;;;23.60;99.90;;;;;;4965877;28;20558;-53
2021/09/26 10:43:18;;;;;;;10.47;6.43;;;23.50;99.90;;;;;;4966433;28;20475;-54
2021/09/26 10:45:46;;;;;;;8.50;6.50;;;23.50;99.90;;;;;;4972740;28;20964;-53
2021/09/26 10:48:16;;;;;;;7.80;6.03;;;23.50;99.90;;;;;;4970422;28;20905;-54
2021/09/26 10:50:44;;;;;;;8.30;5.97;;;23.50;99.90;;;;;;4967369;28;20459;-53
2021/09/26 10:53:13;;;;;;;9.00;6.43;;;23.20;99.90;;;;;;4953645;29;20972;-54
2021/09/26 10:55:40;;;;;;;6.37;5.10;;;23.20;99.90;;;;;;4954606;28;21138;-54
2021/09/26 10:58:18;;;;;;;5.70;4.37;;;23.10;99.90;;;;;;4953632;28;20468;-54
2021/09/26 11:00:58;;;;;;;4.90;4.30;;;22.90;99.90;;;;;;4953451;29;20881;-54
2021/09/26 11:03:41;;;;;;;5.90;4.40;;;22.80;99.90;;;;;;4959459;28;20466;-54
2021/09/26 11:06:26;;;;;;;5.07;4.53;;;22.90;99.90;;;;;;4971938;28;20453;-54
2021/09/26 11:08:55;;;;;;;4.67;3.93;;;22.80;99.90;;;;;;4966987;28;20220;-54
2021/09/26 11:11:45;;;;;;;4.83;4.37;;;22.90;99.90;;;;;;4972641;28;20557;-54
2021/09/26 11:14:13;;;;;;;4.43;3.77;;;23.00;99.90;;;;;;4971207;28;20455;-54
2021/09/26 11:16:50;;;;;;;5.37;4.87;;;23.00;99.90;;;;;;4972063;28;20525;-54
2021/09/26 11:19:20;;;;;;;7.47;5.37;;;23.10;99.90;;;;;;4968887;28;20522;-54
2021/09/26 11:22:06;;;;;;;7.53;4.87;;;23.10;99.90;;;;;;4972446;28;20455;-53
2021/09/26 11:24:42;;;;;;;6.93;5.50;;;23.20;99.90;;;;;;4954349;28;20460;-54
2021/09/26 11:27:15;;;;;;;5.30;4.80;;;23.30;99.90;;;;;;4953002;29;20499;-54
2021/09/26 11:30:15;;;;;;;6.70;5.10;;;23.30;99.90;;;;;;4953439;29;20474;-54
2021/09/26 11:32:42;;;;;;;6.73;5.20;;;23.10;99.90;;;;;;4963332;28;20451;-54
2021/09/26 11:35:24;;;;;;;5.67;5.07;;;22.80;99.90;;;;;;4971659;28;20494;-54
2021/09/26 11:38:02;;;;;;;5.73;5.13;;;22.30;99.90;;;;;;4971353;28;20474;-54
2021/09/26 11:40:50;;;;;;;5.67;5.17;;;22.20;99.90;;;;;;4971944;28;20451;-55
2021/09/26 11:43:20;;;;;;;6.83;5.70;;;22.20;99.90;;;;;;4970152;28;20518;-54
2021/09/26 11:45:47;;;;;;;7.10;5.80;;;21.90;99.90;;;;;;4962527;28;20487;-54
2021/09/26 11:48:15;;;;;;;7.43;5.67;;;21.90;99.90;;;;;;4971978;28;20487;-54
2021/09/26 11:50:46;;;;;;;6.77;6.17;;;21.90;99.90;;;;;;4966671;28;20522;-54
2021/09/26 11:53:15;;;;;;;6.70;6.00;;;21.80;99.90;;;;;;4975435;28;20564;-53
2021/09/26 11:55:43;;;;;;;8.77;6.00;;;21.80;99.90;;;;;;4974569;28;20490;-54
2021/09/26 11:58:12;;;;;;;7.83;5.50;;;21.70;99.90;;;;;;4967549;28;20476;-54
2021/09/26 12:00:41;;;;;;;8.60;6.70;;;21.80;99.90;;;;;;4963621;28;20451;-53
2021/09/26 12:03:23;;;;;;;6.07;5.47;;;22.00;99.90;;;;;;4976086;28;20447;-54
2021/09/26 12:05:52;;;;;;;6.87;6.27;;;22.00;99.90;;;;;;4963392;28;20981;-54
2021/09/26 12:08:20;;;;;;;10.33;9.23;;;22.00;99.90;;;;;;4974192;28;20495;-53
2021/09/26 12:10:49;;;;;;;7.93;6.17;;;22.10;99.90;;;;;;4974353;28;20451;-53
2021/09/26 12:13:19;;;;;;;7.40;5.70;;;22.30;99.90;;;;;;4975078;28;20992;-53
2021/09/26 12:15:47;;;;;;;8.40;6.00;;;22.30;99.90;;;;;;4975713;28;20454;-54
2021/09/26 12:18:23;;;;;;;6.67;5.80;;;22.40;99.90;;;;;;4971765;28;20562;-54
2021/09/26 12:21:03;;;;;;;7.47;5.97;;;22.50;99.90;;;;;;4955207;29;20452;-54
2021/09/26 12:23:45;;;;;;;9.77;6.10;;;22.70;99.90;;;;;;4956549;29;20452;-54
2021/09/26 12:26:12;;;;;;;8.90;6.40;;;22.80;99.90;;;;;;4966924;28;20443;-54
2021/09/26 12:28:41;;;;;;;8.13;6.97;;;23.00;99.90;;;;;;4963474;28;20487;-54
2021/09/26 12:31:08;;;;;;;7.50;5.80;;;23.10;99.90;;;;;;4960763;28;20516;-54
2021/09/26 12:33:45;;;;;;;9.60;6.53;;;23.10;99.90;;;;;;4975418;28;20455;-54
2021/09/26 12:36:16;;;;;;;6.93;6.23;;;23.30;99.90;;;;;;4974947;28;20451;-54
2021/09/26 12:38:52;;;;;;;7.10;6.03;;;23.10;99.90;;;;;;4975502;28;20965;-54
2021/09/26 12:41:25;;;;;;;6.97;5.87;;;22.90;99.90;;;;;;4975153;28;20459;-54
2021/09/26 12:43:55;;;;;;;8.10;6.10;;;23.00;99.90;;;;;;4975332;28;20529;-54
2021/09/26 12:46:27;;;;;;;7.00;6.30;;;23.10;99.90;;;;;;4973218;28;20507;-54
2021/09/26 12:48:55;;;;;;;7.80;7.00;;;23.00;99.90;;;;;;4968591;28;20483;-54
2021/09/26 12:51:25;;;;;;;8.47;6.73;;;22.70;99.90;;;;;;4974923;28;20455;-54
2021/09/26 12:53:57;;;;;;;8.03;6.13;;;22.60;99.90;;;;;;4975281;28;20455;-54
2021/09/26 12:56:26;;;;;;;9.60;6.60;;;22.40;99.90;;;;;;4974578;28;20455;-54